Airfield :
LOGIN :

Register | Disclaimer

   EN    FR    IT 

 










Legend :    VFR   Marginal VFR   IFR   Intensive IFR   Very Intensive IFR
Visi :
Ceiling :
>= 8 km
>= 3000ft
5 to 8 km
1000 to 3000 ft
1500m to 5 km
500 to 1000 ft
800 to 1500m
200 to 500 ft
< 800m
< 200 ft
Symbols :   Thunderstorms  Fog  Heavy snow  Heavy precipitations  Wind > 20 kt
SIGMETs :     Misc.  Thunderstorms  Icing  Turbulence  Mountain Waves  Volcanic Ashes






- Airport Elevation : 194 ft
- IATA code : ANE


LFJR - Angers Marcé

CURRENT METAR :
  • 130430Z AUTO 27013KT 240V300 9999 FEW033 SCT040 BKN047 08/04 Q0986

EXPIRED METARs :
  • 130400Z AUTO 29014G25KT 250V330 9999 FEW032 BKN042 BKN049 09/04 Q0986
  • 130330Z AUTO 28012KT 240V320 9999 BKN031 09/06 Q0985
  • 130300Z AUTO 27014G24KT 240V320 9999 BKN034 BKN074 OVC098 09/06 Q0984
  • 130230Z AUTO 25009KT 9999 ///TCU 08/06 Q0983
  • 130200Z AUTO 26010KT 9999 FEW016/// SCT046/// BKN056/// ///CB 08/07 Q0983

Expired Forecast.



MET'MAP, your aeronautical weather chart ! - Copyright ORBIFLY December 2007 - Disclaimer

ORBIFLY MET'MAP TEAM :

Programming & Development : Alexandra Zaïnal
Concept & original design : Baudouin d'Aumeries
Assistance for programming : Marc-Olivier Méhu
Technical & hardware support : Manuel Goepfert

Contact : metmap@orbifly.com




SOURCES & CREDITS :

   NOAA